sensor_id;sensor_type;location;lat;lon;timestamp;temperature;humidity
19880;DHT22;10102;50.828;4.416;2023-08-31T00:00:42;13.50;99.90
19880;DHT22;10102;50.828;4.416;2023-08-31T00:05:42;13.50;99.90
19880;DHT22;10102;50.828;4.416;2023-08-31T00:08:08;13.50;99.90
19880;DHT22;10102;50.828;4.416;2023-08-31T00:10:36;13.60;99.90
19880;DHT22;10102;50.828;4.416;2023-08-31T00:13:06;13.60;99.90
19880;DHT22;10102;50.828;4.416;2023-08-31T00:15:34;13.60;99.90
19880;DHT22;10102;50.828;4.416;2023-08-31T00:18:04;13.50;99.90
19880;DHT22;10102;50.828;4.416;2023-08-31T00:20:33;13.50;99.90
19880;DHT22;10102;50.828;4.416;2023-08-31T00:22:59;13.60;99.90
19880;DHT22;10102;50.828;4.416;2023-08-31T00:25:25;13.70;99.90
19880;DHT22;10102;50.828;4.416;2023-08-31T00:27:51;13.80;99.90
19880;DHT22;10102;50.828;4.416;2023-08-31T00:30:19;13.80;99.90
19880;DHT22;10102;50.828;4.416;2023-08-31T00:32:45;13.60;99.90
19880;DHT22;10102;50.828;4.416;2023-08-31T00:37:40;13.90;99.90
19880;DHT22;10102;50.828;4.416;2023-08-31T00:40:06;13.90;99.90
19880;DHT22;10102;50.828;4.416;2023-08-31T00:42:34;13.80;99.90
19880;DHT22;10102;50.828;4.416;2023-08-31T00:45:00;14.00;99.90
19880;DHT22;10102;50.828;4.416;2023-08-31T00:47:25;14.00;99.90
19880;DHT22;10102;50.828;4.416;2023-08-31T00:49:52;13.90;99.90
19880;DHT22;10102;50.828;4.416;2023-08-31T00:52:19;13.90;99.90
19880;DHT22;10102;50.828;4.416;2023-08-31T00:54:46;14.10;99.90
19880;DHT22;10102;50.828;4.416;2023-08-31T00:57:13;14.10;99.90
19880;DHT22;10102;50.828;4.416;2023-08-31T00:59:38;14.10;99.90
19880;DHT22;10102;50.828;4.416;2023-08-31T01:04:51;14.10;99.90
19880;DHT22;10102;50.828;4.416;2023-08-31T01:12:59;13.90;99.90
19880;DHT22;10102;50.828;4.416;2023-08-31T01:15:27;13.90;99.90
19880;DHT22;10102;50.828;4.416;2023-08-31T01:17:57;13.90;99.90
19880;DHT22;10102;50.828;4.416;2023-08-31T01:20:32;13.90;99.90
19880;DHT22;10102;50.828;4.416;2023-08-31T01:23:06;13.80;99.90
19880;DHT22;10102;50.828;4.416;2023-08-31T01:25:36;14.00;99.90
19880;DHT22;10102;50.828;4.416;2023-08-31T01:28:03;13.90;99.90
19880;DHT22;10102;50.828;4.416;2023-08-31T01:30:32;13.70;99.90
19880;DHT22;10102;50.828;4.416;2023-08-31T01:32:58;13.90;99.90
19880;DHT22;10102;50.828;4.416;2023-08-31T01:35:25;13.70;99.90
19880;DHT22;10102;50.828;4.416;2023-08-31T01:37:59;13.70;99.90
19880;DHT22;10102;50.828;4.416;2023-08-31T01:40:36;13.70;99.90
19880;DHT22;10102;50.828;4.416;2023-08-31T01:43:03;13.80;99.90
19880;DHT22;10102;50.828;4.416;2023-08-31T01:45:30;13.80;99.90
19880;DHT22;10102;50.828;4.416;2023-08-31T01:47:58;13.80;99.90
19880;DHT22;10102;50.828;4.416;2023-08-31T01:50:24;13.80;99.90
19880;DHT22;10102;50.828;4.416;2023-08-31T01:52:49;13.70;99.90
19880;DHT22;10102;50.828;4.416;2023-08-31T01:55:15;13.80;99.90
19880;DHT22;10102;50.828;4.416;2023-08-31T01:57:41;13.50;99.90
19880;DHT22;10102;50.828;4.416;2023-08-31T02:00:09;13.60;99.90
19880;DHT22;10102;50.828;4.416;2023-08-31T02:02:35;13.70;99.90
19880;DHT22;10102;50.828;4.416;2023-08-31T02:05:02;13.80;99.90
19880;DHT22;10102;50.828;4.416;2023-08-31T02:07:29;14.10;99.90
19880;DHT22;10102;50.828;4.416;2023-08-31T02:09:55;13.70;99.90
19880;DHT22;10102;50.828;4.416;2023-08-31T02:12:21;13.70;99.90
19880;DHT22;10102;50.828;4.416;2023-08-31T02:14:47;13.60;99.90
19880;DHT22;10102;50.828;4.416;2023-08-31T02:17:13;13.70;99.90
19880;DHT22;10102;50.828;4.416;2023-08-31T02:19:39;13.70;99.90
19880;DHT22;10102;50.828;4.416;2023-08-31T02:22:05;13.50;99.90
19880;DHT22;10102;50.828;4.416;2023-08-31T02:24:31;13.80;99.90
19880;DHT22;10102;50.828;4.416;2023-08-31T02:26:57;13.70;99.90
19880;DHT22;10102;50.828;4.416;2023-08-31T02:29:23;13.70;99.90
19880;DHT22;10102;50.828;4.416;2023-08-31T02:31:48;13.70;99.90
19880;DHT22;10102;50.828;4.416;2023-08-31T02:34:14;13.80;99.90
19880;DHT22;10102;50.828;4.416;2023-08-31T02:36:40;13.80;99.90
19880;DHT22;10102;50.828;4.416;2023-08-31T02:39:06;13.80;99.90
19880;DHT22;10102;50.828;4.416;2023-08-31T02:41:32;13.60;99.90
19880;DHT22;10102;50.828;4.416;2023-08-31T02:43:58;13.80;99.90
19880;DHT22;10102;50.828;4.416;2023-08-31T02:46:23;13.70;99.90
19880;DHT22;10102;50.828;4.416;2023-08-31T02:48:50;13.80;99.90
19880;DHT22;10102;50.828;4.416;2023-08-31T02:51:16;13.80;99.90
19880;DHT22;10102;50.828;4.416;2023-08-31T02:53:42;13.70;99.90
19880;DHT22;10102;50.828;4.416;2023-08-31T02:56:08;13.70;99.90
19880;DHT22;10102;50.828;4.416;2023-08-31T02:58:34;13.80;99.90
19880;DHT22;10102;50.828;4.416;2023-08-31T03:01:09;13.70;99.90
19880;DHT22;10102;50.828;4.416;2023-08-31T03:03:40;13.70;99.90
19880;DHT22;10102;50.828;4.416;2023-08-31T03:06:07;13.60;99.90
19880;DHT22;10102;50.828;4.416;2023-08-31T03:08:37;13.60;99.90
19880;DHT22;10102;50.828;4.416;2023-08-31T03:11:03;13.60;99.90
19880;DHT22;10102;50.828;4.416;2023-08-31T03:13:31;13.60;99.90
19880;DHT22;10102;50.828;4.416;2023-08-31T03:15:57;13.50;99.90
19880;DHT22;10102;50.828;4.416;2023-08-31T03:18:23;13.60;99.90
19880;DHT22;10102;50.828;4.416;2023-08-31T03:20:49;13.60;99.90
19880;DHT22;10102;50.828;4.416;2023-08-31T03:23:15;13.60;99.90
19880;DHT22;10102;50.828;4.416;2023-08-31T03:25:41;13.30;99.90
19880;DHT22;10102;50.828;4.416;2023-08-31T03:28:07;13.60;99.90
19880;DHT22;10102;50.828;4.416;2023-08-31T03:30:34;13.70;99.90
19880;DHT22;10102;50.828;4.416;2023-08-31T03:32:59;13.70;99.90
19880;DHT22;10102;50.828;4.416;2023-08-31T03:35:25;13.70;99.90
19880;DHT22;10102;50.828;4.416;2023-08-31T03:37:55;13.70;99.90
19880;DHT22;10102;50.828;4.416;2023-08-31T03:40:22;13.70;99.90
19880;DHT22;10102;50.828;4.416;2023-08-31T03:42:49;13.80;99.90
19880;DHT22;10102;50.828;4.416;2023-08-31T03:45:15;13.80;99.90
19880;DHT22;10102;50.828;4.416;2023-08-31T03:47:41;13.70;99.90
19880;DHT22;10102;50.828;4.416;2023-08-31T03:50:07;13.80;99.90
19880;DHT22;10102;50.828;4.416;2023-08-31T03:52:34;13.90;99.90
19880;DHT22;10102;50.828;4.416;2023-08-31T03:54:59;13.80;99.90
19880;DHT22;10102;50.828;4.416;2023-08-31T03:57:26;13.80;99.90
19880;DHT22;10102;50.828;4.416;2023-08-31T04:02:18;13.70;99.90
19880;DHT22;10102;50.828;4.416;2023-08-31T04:04:44;13.60;99.90
19880;DHT22;10102;50.828;4.416;2023-08-31T04:07:10;13.20;99.90
19880;DHT22;10102;50.828;4.416;2023-08-31T04:09:35;13.50;99.90
19880;DHT22;10102;50.828;4.416;2023-08-31T04:12:02;13.60;99.90
19880;DHT22;10102;50.828;4.416;2023-08-31T04:14:27;13.70;99.90
19880;DHT22;10102;50.828;4.416;2023-08-31T04:16:56;13.60;99.90
19880;DHT22;10102;50.828;4.416;2023-08-31T04:19:22;13.50;99.90
19880;DHT22;10102;50.828;4.416;2023-08-31T04:21:48;13.60;99.90
19880;DHT22;10102;50.828;4.416;2023-08-31T04:24:14;13.20;99.90
19880;DHT22;10102;50.828;4.416;2023-08-31T04:26:40;13.50;99.90
19880;DHT22;10102;50.828;4.416;2023-08-31T04:29:06;13.40;99.90
19880;DHT22;10102;50.828;4.416;2023-08-31T04:31:32;13.30;99.90
19880;DHT22;10102;50.828;4.416;2023-08-31T04:33:58;13.50;99.90
19880;DHT22;10102;50.828;4.416;2023-08-31T04:36:24;13.50;99.90
19880;DHT22;10102;50.828;4.416;2023-08-31T04:38:51;13.50;99.90
19880;DHT22;10102;50.828;4.416;2023-08-31T04:41:18;13.50;99.90
19880;DHT22;10102;50.828;4.416;2023-08-31T04:43:44;13.50;99.90
19880;DHT22;10102;50.828;4.416;2023-08-31T04:46:09;13.40;99.90
19880;DHT22;10102;50.828;4.416;2023-08-31T04:48:38;13.30;99.90
19880;DHT22;10102;50.828;4.416;2023-08-31T04:53:31;13.50;99.90
19880;DHT22;10102;50.828;4.416;2023-08-31T04:55:58;13.30;99.90
19880;DHT22;10102;50.828;4.416;2023-08-31T04:58:24;13.40;99.90
19880;DHT22;10102;50.828;4.416;2023-08-31T05:00:51;13.30;99.90
19880;DHT22;10102;50.828;4.416;2023-08-31T05:03:17;13.40;99.90
19880;DHT22;10102;50.828;4.416;2023-08-31T05:05:43;13.80;99.90
19880;DHT22;10102;50.828;4.416;2023-08-31T05:08:10;13.50;99.90
19880;DHT22;10102;50.828;4.416;2023-08-31T05:10:36;13.50;99.90
19880;DHT22;10102;50.828;4.416;2023-08-31T05:13:01;13.50;99.90
19880;DHT22;10102;50.828;4.416;2023-08-31T05:15:28;13.60;99.90
19880;DHT22;10102;50.828;4.416;2023-08-31T05:20:20;13.60;99.90
19880;DHT22;10102;50.828;4.416;2023-08-31T05:22:48;13.60;99.90
19880;DHT22;10102;50.828;4.416;2023-08-31T05:25:16;13.90;99.90
19880;DHT22;10102;50.828;4.416;2023-08-31T05:27:41;13.40;99.90
19880;DHT22;10102;50.828;4.416;2023-08-31T05:30:08;13.60;99.90
19880;DHT22;10102;50.828;4.416;2023-08-31T05:32:34;13.60;99.90
19880;DHT22;10102;50.828;4.416;2023-08-31T05:35:00;13.60;99.90
19880;DHT22;10102;50.828;4.416;2023-08-31T05:37:26;14.00;99.90
19880;DHT22;10102;50.828;4.416;2023-08-31T05:39:56;13.80;99.90
19880;DHT22;10102;50.828;4.416;2023-08-31T05:42:22;13.80;99.90
19880;DHT22;10102;50.828;4.416;2023-08-31T05:44:48;13.70;99.90
19880;DHT22;10102;50.828;4.416;2023-08-31T05:47:14;13.70;99.90
19880;DHT22;10102;50.828;4.416;2023-08-31T05:49:40;13.80;99.90
19880;DHT22;10102;50.828;4.416;2023-08-31T05:52:06;13.50;99.90
19880;DHT22;10102;50.828;4.416;2023-08-31T05:54:32;13.70;99.90
19880;DHT22;10102;50.828;4.416;2023-08-31T05:56:58;14.20;99.90
19880;DHT22;10102;50.828;4.416;2023-08-31T05:59:24;13.90;99.90
19880;DHT22;10102;50.828;4.416;2023-08-31T06:01:50;13.70;99.90
19880;DHT22;10102;50.828;4.416;2023-08-31T06:04:16;13.80;99.90
19880;DHT22;10102;50.828;4.416;2023-08-31T06:06:42;13.80;99.90
19880;DHT22;10102;50.828;4.416;2023-08-31T06:09:08;13.80;99.90
19880;DHT22;10102;50.828;4.416;2023-08-31T06:11:33;13.80;99.90
19880;DHT22;10102;50.828;4.416;2023-08-31T06:14:00;13.90;99.90
19880;DHT22;10102;50.828;4.416;2023-08-31T06:16:26;13.90;99.90
19880;DHT22;10102;50.828;4.416;2023-08-31T06:18:52;14.00;99.90
19880;DHT22;10102;50.828;4.416;2023-08-31T06:21:18;14.00;99.90
19880;DHT22;10102;50.828;4.416;2023-08-31T06:23:45;14.20;99.90
19880;DHT22;10102;50.828;4.416;2023-08-31T06:26:12;13.80;99.90
19880;DHT22;10102;50.828;4.416;2023-08-31T06:28:37;14.20;99.90
19880;DHT22;10102;50.828;4.416;2023-08-31T06:31:03;14.10;99.90
19880;DHT22;10102;50.828;4.416;2023-08-31T06:33:29;14.30;99.90
19880;DHT22;10102;50.828;4.416;2023-08-31T06:35:55;14.30;99.90
19880;DHT22;10102;50.828;4.416;2023-08-31T06:38:21;14.40;99.90
19880;DHT22;10102;50.828;4.416;2023-08-31T06:40:47;14.40;99.90
19880;DHT22;10102;50.828;4.416;2023-08-31T06:43:13;14.60;99.90
19880;DHT22;10102;50.828;4.416;2023-08-31T06:45:38;14.50;99.90
19880;DHT22;10102;50.828;4.416;2023-08-31T06:48:05;14.40;99.90
19880;DHT22;10102;50.828;4.416;2023-08-31T06:50:33;14.40;99.90
19880;DHT22;10102;50.828;4.416;2023-08-31T06:53:01;14.30;99.90
19880;DHT22;10102;50.828;4.416;2023-08-31T06:57:53;14.50;99.90
19880;DHT22;10102;50.828;4.416;2023-08-31T07:00:19;14.80;99.90
19880;DHT22;10102;50.828;4.416;2023-08-31T07:02:45;14.40;99.90
19880;DHT22;10102;50.828;4.416;2023-08-31T07:05:11;14.80;99.90
19880;DHT22;10102;50.828;4.416;2023-08-31T07:07:37;14.80;99.90
19880;DHT22;10102;50.828;4.416;2023-08-31T07:10:03;15.40;99.90
19880;DHT22;10102;50.828;4.416;2023-08-31T07:12:31;15.00;99.90
19880;DHT22;10102;50.828;4.416;2023-08-31T07:14:57;15.00;99.90
19880;DHT22;10102;50.828;4.416;2023-08-31T07:19:49;15.20;99.90
19880;DHT22;10102;50.828;4.416;2023-08-31T07:22:14;15.30;99.90
19880;DHT22;10102;50.828;4.416;2023-08-31T07:24:41;14.90;99.90
19880;DHT22;10102;50.828;4.416;2023-08-31T07:27:07;15.20;99.90
19880;DHT22;10102;50.828;4.416;2023-08-31T07:29:32;15.00;99.90
19880;DHT22;10102;50.828;4.416;2023-08-31T07:31:58;15.10;99.90
19880;DHT22;10102;50.828;4.416;2023-08-31T07:34:24;15.10;99.90
19880;DHT22;10102;50.828;4.416;2023-08-31T07:36:50;15.20;99.90
19880;DHT22;10102;50.828;4.416;2023-08-31T07:39:16;15.00;99.90
19880;DHT22;10102;50.828;4.416;2023-08-31T07:41:44;15.30;99.90
19880;DHT22;10102;50.828;4.416;2023-08-31T07:46:36;15.30;99.90
19880;DHT22;10102;50.828;4.416;2023-08-31T07:49:02;15.20;99.90
19880;DHT22;10102;50.828;4.416;2023-08-31T07:51:29;15.40;99.90
19880;DHT22;10102;50.828;4.416;2023-08-31T07:53:55;15.70;99.90
19880;DHT22;10102;50.828;4.416;2023-08-31T07:56:22;15.70;99.90
19880;DHT22;10102;50.828;4.416;2023-08-31T07:58:50;15.70;99.90
19880;DHT22;10102;50.828;4.416;2023-08-31T08:01:15;16.00;99.90
19880;DHT22;10102;50.828;4.416;2023-08-31T08:06:07;16.10;99.90
19880;DHT22;10102;50.828;4.416;2023-08-31T08:08:34;16.10;99.90
19880;DHT22;10102;50.828;4.416;2023-08-31T08:11:04;16.10;99.90
19880;DHT22;10102;50.828;4.416;2023-08-31T08:13:30;16.40;99.90
19880;DHT22;10102;50.828;4.416;2023-08-31T08:15:57;16.50;99.90
19880;DHT22;10102;50.828;4.416;2023-08-31T08:18:22;16.40;99.90
19880;DHT22;10102;50.828;4.416;2023-08-31T08:20:50;16.30;99.90
19880;DHT22;10102;50.828;4.416;2023-08-31T08:23:16;16.50;99.90
19880;DHT22;10102;50.828;4.416;2023-08-31T08:25:42;16.30;99.90
19880;DHT22;10102;50.828;4.416;2023-08-31T08:28:08;16.50;99.90
19880;DHT22;10102;50.828;4.416;2023-08-31T08:30:34;16.70;99.90
19880;DHT22;10102;50.828;4.416;2023-08-31T08:33:00;16.70;99.90
19880;DHT22;10102;50.828;4.416;2023-08-31T08:35:26;17.00;99.90
19880;DHT22;10102;50.828;4.416;2023-08-31T08:37:52;17.20;99.90
19880;DHT22;10102;50.828;4.416;2023-08-31T08:40:18;17.40;99.90
19880;DHT22;10102;50.828;4.416;2023-08-31T08:42:46;17.40;99.90
19880;DHT22;10102;50.828;4.416;2023-08-31T08:45:16;17.40;99.90
19880;DHT22;10102;50.828;4.416;2023-08-31T08:47:45;17.40;99.90
19880;DHT22;10102;50.828;4.416;2023-08-31T08:50:12;17.70;99.90
19880;DHT22;10102;50.828;4.416;2023-08-31T08:52:39;17.60;99.90
19880;DHT22;10102;50.828;4.416;2023-08-31T08:55:05;17.70;99.90
19880;DHT22;10102;50.828;4.416;2023-08-31T08:57:32;17.80;99.90
19880;DHT22;10102;50.828;4.416;2023-08-31T08:59:58;17.80;99.90
19880;DHT22;10102;50.828;4.416;2023-08-31T09:04:50;17.90;99.90
19880;DHT22;10102;50.828;4.416;2023-08-31T09:07:24;18.10;99.90
19880;DHT22;10102;50.828;4.416;2023-08-31T09:09:54;18.10;99.90
19880;DHT22;10102;50.828;4.416;2023-08-31T09:12:23;18.30;99.90
19880;DHT22;10102;50.828;4.416;2023-08-31T09:14:59;18.40;99.90
19880;DHT22;10102;50.828;4.416;2023-08-31T09:17:26;18.60;99.90
19880;DHT22;10102;50.828;4.416;2023-08-31T09:19:59;18.60;99.90
19880;DHT22;10102;50.828;4.416;2023-08-31T09:22:27;18.70;99.90
19880;DHT22;10102;50.828;4.416;2023-08-31T09:27:20;18.50;99.90
19880;DHT22;10102;50.828;4.416;2023-08-31T09:29:48;18.80;99.90
19880;DHT22;10102;50.828;4.416;2023-08-31T09:32:17;18.70;99.90
19880;DHT22;10102;50.828;4.416;2023-08-31T09:34:43;18.80;99.90
19880;DHT22;10102;50.828;4.416;2023-08-31T09:37:09;18.60;99.90
19880;DHT22;10102;50.828;4.416;2023-08-31T09:39:39;18.90;99.90
19880;DHT22;10102;50.828;4.416;2023-08-31T09:42:05;18.00;99.90
19880;DHT22;10102;50.828;4.416;2023-08-31T09:44:31;19.00;99.90
19880;DHT22;10102;50.828;4.416;2023-08-31T09:46:58;19.40;99.90
19880;DHT22;10102;50.828;4.416;2023-08-31T09:49:25;19.60;99.90
19880;DHT22;10102;50.828;4.416;2023-08-31T09:51:51;19.20;99.90
19880;DHT22;10102;50.828;4.416;2023-08-31T09:54:19;19.30;99.90
19880;DHT22;10102;50.828;4.416;2023-08-31T09:56:47;19.80;99.90
19880;DHT22;10102;50.828;4.416;2023-08-31T09:59:15;20.20;99.90
19880;DHT22;10102;50.828;4.416;2023-08-31T10:01:43;20.10;99.90
19880;DHT22;10102;50.828;4.416;2023-08-31T10:04:11;20.30;99.90
19880;DHT22;10102;50.828;4.416;2023-08-31T10:06:42;20.50;99.90
19880;DHT22;10102;50.828;4.416;2023-08-31T10:09:09;20.30;99.90
19880;DHT22;10102;50.828;4.416;2023-08-31T10:11:41;20.20;99.90
19880;DHT22;10102;50.828;4.416;2023-08-31T10:14:11;20.50;99.90
19880;DHT22;10102;50.828;4.416;2023-08-31T10:16:41;20.90;99.90
19880;DHT22;10102;50.828;4.416;2023-08-31T10:19:09;21.20;99.90
19880;DHT22;10102;50.828;4.416;2023-08-31T10:21:36;21.30;99.90
19880;DHT22;10102;50.828;4.416;2023-08-31T10:24:03;21.40;99.90
19880;DHT22;10102;50.828;4.416;2023-08-31T10:26:31;21.00;99.90
19880;DHT22;10102;50.828;4.416;2023-08-31T10:28:59;21.10;99.90
19880;DHT22;10102;50.828;4.416;2023-08-31T10:31:32;21.30;99.90
19880;DHT22;10102;50.828;4.416;2023-08-31T10:34:05;21.10;99.90
19880;DHT22;10102;50.828;4.416;2023-08-31T10:36:45;20.80;99.90
19880;DHT22;10102;50.828;4.416;2023-08-31T10:39:18;20.90;99.90
19880;DHT22;10102;50.828;4.416;2023-08-31T10:41:55;20.90;99.90
19880;DHT22;10102;50.828;4.416;2023-08-31T10:44:30;20.90;99.90
19880;DHT22;10102;50.828;4.416;2023-08-31T10:47:00;21.10;99.90
19880;DHT22;10102;50.828;4.416;2023-08-31T10:49:26;21.70;99.90
19880;DHT22;10102;50.828;4.416;2023-08-31T10:52:16;22.40;99.90
19880;DHT22;10102;50.828;4.416;2023-08-31T10:54:43;22.40;99.90
19880;DHT22;10102;50.828;4.416;2023-08-31T10:57:09;23.20;99.90
19880;DHT22;10102;50.828;4.416;2023-08-31T10:59:48;22.50;99.90
19880;DHT22;10102;50.828;4.416;2023-08-31T11:02:38;23.10;99.90
19880;DHT22;10102;50.828;4.416;2023-08-31T11:07:35;24.90;99.90
19880;DHT22;10102;50.828;4.416;2023-08-31T11:12:42;24.50;99.90
19880;DHT22;10102;50.828;4.416;2023-08-31T11:15:10;24.80;99.90
19880;DHT22;10102;50.828;4.416;2023-08-31T11:17:36;24.50;99.90
19880;DHT22;10102;50.828;4.416;2023-08-31T11:20:06;25.10;99.90
19880;DHT22;10102;50.828;4.416;2023-08-31T11:22:32;25.10;99.90
19880;DHT22;10102;50.828;4.416;2023-08-31T11:25:01;27.10;99.90
19880;DHT22;10102;50.828;4.416;2023-08-31T11:27:26;26.20;99.90
19880;DHT22;10102;50.828;4.416;2023-08-31T11:29:52;25.20;99.90
19880;DHT22;10102;50.828;4.416;2023-08-31T11:32:18;24.70;99.90
19880;DHT22;10102;50.828;4.416;2023-08-31T11:34:45;25.40;99.90
19880;DHT22;10102;50.828;4.416;2023-08-31T11:37:12;25.50;99.90
19880;DHT22;10102;50.828;4.416;2023-08-31T11:39:51;26.90;99.90
19880;DHT22;10102;50.828;4.416;2023-08-31T11:42:20;28.10;99.90
19880;DHT22;10102;50.828;4.416;2023-08-31T11:44:50;28.10;99.90
19880;DHT22;10102;50.828;4.416;2023-08-31T11:47:18;27.90;99.90
19880;DHT22;10102;50.828;4.416;2023-08-31T11:49:44;27.70;99.90
19880;DHT22;10102;50.828;4.416;2023-08-31T11:52:12;27.30;99.90
19880;DHT22;10102;50.828;4.416;2023-08-31T11:54:39;26.60;99.90
19880;DHT22;10102;50.828;4.416;2023-08-31T11:57:09;26.30;99.90
19880;DHT22;10102;50.828;4.416;2023-08-31T11:59:39;27.10;99.90
19880;DHT22;10102;50.828;4.416;2023-08-31T12:02:08;28.00;99.90
19880;DHT22;10102;50.828;4.416;2023-08-31T12:04:44;25.50;99.90
19880;DHT22;10102;50.828;4.416;2023-08-31T12:07:10;23.80;99.90
19880;DHT22;10102;50.828;4.416;2023-08-31T12:09:36;23.80;99.90
19880;DHT22;10102;50.828;4.416;2023-08-31T12:12:02;23.40;99.90
19880;DHT22;10102;50.828;4.416;2023-08-31T12:17:05;23.20;99.90
19880;DHT22;10102;50.828;4.416;2023-08-31T12:19:31;23.00;99.90
19880;DHT22;10102;50.828;4.416;2023-08-31T12:21:57;22.90;99.90
19880;DHT22;10102;50.828;4.416;2023-08-31T12:24:24;22.80;99.90
19880;DHT22;10102;50.828;4.416;2023-08-31T12:26:50;22.70;99.90
19880;DHT22;10102;50.828;4.416;2023-08-31T12:29:16;22.30;99.90
19880;DHT22;10102;50.828;4.416;2023-08-31T12:31:42;22.20;99.90
19880;DHT22;10102;50.828;4.416;2023-08-31T12:34:09;22.20;99.90
19880;DHT22;10102;50.828;4.416;2023-08-31T12:36:35;22.30;99.90
19880;DHT22;10102;50.828;4.416;2023-08-31T12:39:09;22.40;99.90
19880;DHT22;10102;50.828;4.416;2023-08-31T12:41:36;22.70;99.90
19880;DHT22;10102;50.828;4.416;2023-08-31T12:44:03;22.80;99.90
19880;DHT22;10102;50.828;4.416;2023-08-31T12:46:30;22.50;99.90
19880;DHT22;10102;50.828;4.416;2023-08-31T12:48:56;22.50;99.90
19880;DHT22;10102;50.828;4.416;2023-08-31T12:51:22;22.40;99.90
19880;DHT22;10102;50.828;4.416;2023-08-31T12:53:48;22.20;99.90
19880;DHT22;10102;50.828;4.416;2023-08-31T12:56:14;22.00;99.90
19880;DHT22;10102;50.828;4.416;2023-08-31T12:58:51;21.90;99.90
19880;DHT22;10102;50.828;4.416;2023-08-31T13:01:19;21.70;99.90
19880;DHT22;10102;50.828;4.416;2023-08-31T13:03:46;22.10;99.90
19880;DHT22;10102;50.828;4.416;2023-08-31T13:06:13;21.60;99.90
19880;DHT22;10102;50.828;4.416;2023-08-31T13:08:39;22.00;99.90
19880;DHT22;10102;50.828;4.416;2023-08-31T13:11:05;22.20;99.90
19880;DHT22;10102;50.828;4.416;2023-08-31T13:13:32;22.00;99.90
19880;DHT22;10102;50.828;4.416;2023-08-31T13:15:58;21.80;99.90
19880;DHT22;10102;50.828;4.416;2023-08-31T13:18:24;22.00;99.90
19880;DHT22;10102;50.828;4.416;2023-08-31T13:23:16;22.30;99.90
19880;DHT22;10102;50.828;4.416;2023-08-31T13:25:43;22.40;99.90
19880;DHT22;10102;50.828;4.416;2023-08-31T13:28:09;22.60;99.90
19880;DHT22;10102;50.828;4.416;2023-08-31T13:30:35;23.00;99.90
19880;DHT22;10102;50.828;4.416;2023-08-31T13:33:00;23.40;99.90
19880;DHT22;10102;50.828;4.416;2023-08-31T13:35:27;23.50;99.90
19880;DHT22;10102;50.828;4.416;2023-08-31T13:37:53;23.60;99.90
19880;DHT22;10102;50.828;4.416;2023-08-31T13:40:19;23.60;99.90
19880;DHT22;10102;50.828;4.416;2023-08-31T13:42:58;24.30;99.90
19880;DHT22;10102;50.828;4.416;2023-08-31T13:45:27;24.50;99.90
19880;DHT22;10102;50.828;4.416;2023-08-31T13:47:53;23.90;99.90
19880;DHT22;10102;50.828;4.416;2023-08-31T13:50:19;24.00;99.90
19880;DHT22;10102;50.828;4.416;2023-08-31T13:52:45;23.70;99.90
19880;DHT22;10102;50.828;4.416;2023-08-31T13:55:11;23.70;99.90
19880;DHT22;10102;50.828;4.416;2023-08-31T13:57:40;23.50;99.90
19880;DHT22;10102;50.828;4.416;2023-08-31T14:00:07;23.50;99.90
19880;DHT22;10102;50.828;4.416;2023-08-31T14:02:37;23.50;99.90
19880;DHT22;10102;50.828;4.416;2023-08-31T14:05:05;23.30;99.90
19880;DHT22;10102;50.828;4.416;2023-08-31T14:07:38;22.70;99.90
19880;DHT22;10102;50.828;4.416;2023-08-31T14:10:05;22.30;99.90
19880;DHT22;10102;50.828;4.416;2023-08-31T14:12:32;22.20;99.90
19880;DHT22;10102;50.828;4.416;2023-08-31T14:14:58;21.90;99.90
19880;DHT22;10102;50.828;4.416;2023-08-31T14:17:24;22.00;99.90
19880;DHT22;10102;50.828;4.416;2023-08-31T14:19:49;21.50;99.90
19880;DHT22;10102;50.828;4.416;2023-08-31T14:22:15;21.80;99.90
19880;DHT22;10102;50.828;4.416;2023-08-31T14:24:41;22.00;99.90
19880;DHT22;10102;50.828;4.416;2023-08-31T14:27:07;22.20;99.90
19880;DHT22;10102;50.828;4.416;2023-08-31T14:29:32;22.20;99.90
19880;DHT22;10102;50.828;4.416;2023-08-31T14:32:00;22.20;99.90
19880;DHT22;10102;50.828;4.416;2023-08-31T14:34:26;22.30;99.90
19880;DHT22;10102;50.828;4.416;2023-08-31T14:36:52;22.00;99.90
19880;DHT22;10102;50.828;4.416;2023-08-31T14:39:19;22.00;99.90
19880;DHT22;10102;50.828;4.416;2023-08-31T14:41:45;21.60;99.90
19880;DHT22;10102;50.828;4.416;2023-08-31T14:44:11;21.40;99.90
19880;DHT22;10102;50.828;4.416;2023-08-31T14:46:37;21.50;99.90
19880;DHT22;10102;50.828;4.416;2023-08-31T14:49:03;21.40;99.90
19880;DHT22;10102;50.828;4.416;2023-08-31T14:51:29;21.30;99.90
19880;DHT22;10102;50.828;4.416;2023-08-31T14:53:55;21.50;99.90
19880;DHT22;10102;50.828;4.416;2023-08-31T14:56:21;21.40;99.90
19880;DHT22;10102;50.828;4.416;2023-08-31T14:58:47;21.50;99.90
19880;DHT22;10102;50.828;4.416;2023-08-31T15:01:12;22.00;99.90
19880;DHT22;10102;50.828;4.416;2023-08-31T15:03:38;22.40;99.90
19880;DHT22;10102;50.828;4.416;2023-08-31T15:06:04;22.00;99.90
19880;DHT22;10102;50.828;4.416;2023-08-31T15:08:40;21.90;99.90
19880;DHT22;10102;50.828;4.416;2023-08-31T15:11:09;21.90;99.90
19880;DHT22;10102;50.828;4.416;2023-08-31T15:13:35;21.90;99.90
19880;DHT22;10102;50.828;4.416;2023-08-31T15:16:01;21.90;99.90
19880;DHT22;10102;50.828;4.416;2023-08-31T15:18:30;22.00;99.90
19880;DHT22;10102;50.828;4.416;2023-08-31T15:20:56;21.90;99.90
19880;DHT22;10102;50.828;4.416;2023-08-31T15:23:22;21.90;99.90
19880;DHT22;10102;50.828;4.416;2023-08-31T15:25:48;21.70;99.90
19880;DHT22;10102;50.828;4.416;2023-08-31T15:28:14;21.60;99.90
19880;DHT22;10102;50.828;4.416;2023-08-31T15:30:40;21.20;99.90
19880;DHT22;10102;50.828;4.416;2023-08-31T15:33:06;21.20;99.90
19880;DHT22;10102;50.828;4.416;2023-08-31T15:35:32;20.90;99.90
19880;DHT22;10102;50.828;4.416;2023-08-31T15:37:59;21.00;99.90
19880;DHT22;10102;50.828;4.416;2023-08-31T15:40:25;20.80;99.90
19880;DHT22;10102;50.828;4.416;2023-08-31T15:42:51;20.70;99.90
19880;DHT22;10102;50.828;4.416;2023-08-31T15:45:17;20.80;99.90
19880;DHT22;10102;50.828;4.416;2023-08-31T15:47:43;20.90;99.90
19880;DHT22;10102;50.828;4.416;2023-08-31T15:50:09;20.60;99.90
19880;DHT22;10102;50.828;4.416;2023-08-31T15:52:35;20.70;99.90
19880;DHT22;10102;50.828;4.416;2023-08-31T15:55:03;20.90;99.90
19880;DHT22;10102;50.828;4.416;2023-08-31T15:57:30;20.60;99.90
19880;DHT22;10102;50.828;4.416;2023-08-31T15:59:59;20.50;99.90
19880;DHT22;10102;50.828;4.416;2023-08-31T16:02:25;20.40;99.90
19880;DHT22;10102;50.828;4.416;2023-08-31T16:04:52;20.40;99.90
19880;DHT22;10102;50.828;4.416;2023-08-31T16:07:19;20.40;99.90
19880;DHT22;10102;50.828;4.416;2023-08-31T16:09:45;20.20;99.90
19880;DHT22;10102;50.828;4.416;2023-08-31T16:12:12;20.10;99.90
19880;DHT22;10102;50.828;4.416;2023-08-31T16:14:38;20.20;99.90